»·PEaware :: DAL571 KPSP-KLAX

DAL571 :: KPSP-KLAX

FLIGHT INFORMATION

Flight Status: Arrived
Operator:
Delta Air Lines
More flights by this operator :: More flights under this callsign
Pilot: John H. (20300)
Aircraft: AIRBUS A320
(A320)
More flights by this aircraft type
Origin: KPSP Palm Springs Intl
United States
Destination: KLAX Los Angeles Intl
United States
More flights between these airports :: More routes between these airports
Route: CATH1 PSP V388 LENHO SEAVU
File this flight plan on PilotEdge
Remarks: TEC route PSPP10B
Altitude:
(Current/Filed)
12,000ft
Speed:
(Current/Filed)
430kts
Departed: 25-Sep-18 11:10 AM
Arrived: 25-Sep-18 11:41 AM
Distance/Time
Traveled:
94nm/0:31
Distance/Time
To Go:
Arrived

Flight Plot

Page will automatically refresh every two minutes.

Flight plan parsing failed; only flown route is shown


Map Options




Map Legend


Flown Route
Filed Route
Departure Airport
Arrival Airport
Navaid (VOR, NDB)
Fix

Horizontal Profiles

Position Reports

Time Latitude Longitude Heading Altitude Ground
Speed
25-Sep-18 10:52 33.823170 -116.496700 54 491ft 0kts
25-Sep-18 10:53 33.823170 -116.496700 54 491ft 0kts
25-Sep-18 10:54 33.823170 -116.496700 54 491ft 0kts
25-Sep-18 10:55 33.823170 -116.496700 54 491ft 0kts
25-Sep-18 10:56 33.823170 -116.496700 54 491ft 0kts
25-Sep-18 10:57 33.823170 -116.496700 54 491ft 0kts
25-Sep-18 10:58 33.823170 -116.496700 54 491ft 0kts
25-Sep-18 10:59 33.823170 -116.496700 54 491ft 0kts
25-Sep-18 11:00 33.823170 -116.496700 54 491ft 0kts
25-Sep-18 11:01 33.822967 -116.497048 54 491ft 2kts
25-Sep-18 11:02 33.822747 -116.497425 54 491ft 0kts
25-Sep-18 11:03 33.822748 -116.497424 54 491ft 0kts
25-Sep-18 11:04 33.822748 -116.497424 54 491ft 0kts
25-Sep-18 11:05 33.822748 -116.497424 54 491ft 0kts
25-Sep-18 11:06 33.822748 -116.497423 54 491ft 0kts
25-Sep-18 11:07 33.822390 -116.497037 144 491ft 16kts
25-Sep-18 11:08 33.818533 -116.496254 240 491ft 12kts
25-Sep-18 11:09 33.818365 -116.496597 235 491ft 0kts
25-Sep-18 11:10 33.818364 -116.496598 235 491ft 0kts
25-Sep-18 11:11 33.818222 -116.497443 319 491ft 0kts
25-Sep-18 11:12 33.847493 -116.518856 352 2516ft 203kts
25-Sep-18 11:13 33.896613 -116.474671 81 5838ft 280kts
25-Sep-18 11:14 33.855321 -116.397175 132 7937ft 294kts
25-Sep-18 11:15 33.802257 -116.323515 100 10226ft 312kts
25-Sep-18 11:16 33.849986 -116.232084 20 12049ft 358kts
25-Sep-18 11:17 33.933984 -116.259210 305 12051ft 337kts
25-Sep-18 11:18 33.948941 -116.367237 268 12053ft 344kts
25-Sep-18 11:19 33.948773 -116.485969 270 12046ft 357kts
25-Sep-18 11:20 33.948780 -116.605824 270 12034ft 358kts
25-Sep-18 11:21 33.948697 -116.725690 269 12047ft 358kts
25-Sep-18 11:22 33.945089 -116.845925 267 12040ft 358kts
25-Sep-18 11:23 33.940942 -116.966160 267 12052ft 358kts
25-Sep-18 11:24 33.936664 -117.086012 267 12045ft 358kts
25-Sep-18 11:25 33.932136 -117.205673 266 12036ft 349kts
25-Sep-18 11:26 33.927431 -117.311524 266 12009ft 299kts
25-Sep-18 11:27 33.942291 -117.406230 294 10537ft 292kts
25-Sep-18 11:28 33.972312 -117.496127 275 9223ft 288kts
25-Sep-18 11:29 33.970550 -117.592152 268 9177ft 285kts
25-Sep-18 11:30 33.983978 -117.686150 281 9177ft 286kts
25-Sep-18 11:31 34.001047 -117.779602 281 9177ft 286kts
25-Sep-18 11:32 33.999103 -117.869951 234 9163ft 254kts
25-Sep-18 11:33 33.975913 -117.929509 248 8018ft 232kts
25-Sep-18 11:34 33.962586 -118.017498 270 5681ft 228kts
25-Sep-18 11:35 33.961177 -118.086660 268 5100ft 172kts
25-Sep-18 11:36 33.960277 -118.130071 268 4704ft 150kts
25-Sep-18 11:37 33.958429 -118.179673 262 3721ft 145kts
25-Sep-18 11:38 33.954036 -118.222214 262 2922ft 133kts
25-Sep-18 11:39 33.948878 -118.272539 264 2179ft 131kts
25-Sep-18 11:40 33.945239 -118.308046 264 1886ft 128kts
25-Sep-18 11:41 33.941046 -118.349215 264 833ft 120kts
25-Sep-18 11:42 33.936960 -118.389142 260 140ft 111kts
25-Sep-18 11:43 33.936477 -118.399131 293 140ft 0kts

Navigation Log

Ident Type
Flight plan parsing failed, navigation log unavailable